Time;durP1;ratioP1;P1;durP2;ratioP2;P2;SDS_P1;SDS_P2;PMS_P1;PMS_P2;Temp;Humidity;BMP_temperature;BMP_pressure;BME280_temperature;BME280_humidity;BME280_pressure;Samples;Min_cycle;Max_cycle;Signal;HPM_P1;HPM_P2
2023/08/17 00:00:08;;;;;;;63.42;56.88;;;17.80;99.90;;;;;;5030131;28;20042;-82
2023/08/17 00:02:36;;;;;;;64.43;56.83;;;17.70;99.90;;;;;;5030544;28;20128;-81
2023/08/17 00:05:06;;;;;;;63.83;57.20;;;17.70;99.90;;;;;;5029599;28;20107;-81
2023/08/17 00:07:33;;;;;;;64.20;57.40;;;17.60;99.90;;;;;;5029092;28;20064;-81
2023/08/17 00:10:01;;;;;;;65.65;58.67;;;17.60;99.90;;;;;;5029066;28;20049;-81
2023/08/17 00:12:28;;;;;;;64.53;57.78;;;17.50;99.90;;;;;;5029262;28;20049;-81
2023/08/17 00:14:56;;;;;;;62.10;55.47;;;17.50;99.90;;;;;;5029244;28;20038;-81
2023/08/17 00:17:23;;;;;;;64.47;56.40;;;17.50;99.90;;;;;;5043116;28;20049;-80
2023/08/17 00:19:51;;;;;;;60.13;53.83;;;17.60;99.90;;;;;;5027538;28;20096;-81
2023/08/17 00:22:19;;;;;;;58.28;51.97;;;17.60;99.90;;;;;;5029364;28;20133;-81
2023/08/17 00:24:47;;;;;;;61.38;54.80;;;17.60;99.90;;;;;;5027635;28;20096;-81
2023/08/17 00:27:14;;;;;;;60.60;54.17;;;17.60;99.90;;;;;;5028462;28;20037;-81
2023/08/17 00:29:41;;;;;;;60.97;54.40;;;17.60;99.90;;;;;;5027865;28;20069;-81
2023/08/17 00:32:09;;;;;;;59.25;53.15;;;17.60;99.90;;;;;;5043928;28;20045;-81
2023/08/17 00:34:37;;;;;;;61.05;54.58;;;17.50;99.90;;;;;;5028746;28;20057;-80
2023/08/17 00:37:04;;;;;;;60.00;53.72;;;17.50;99.90;;;;;;5027345;28;20041;-80
2023/08/17 00:39:33;;;;;;;58.22;52.10;;;17.60;99.90;;;;;;5027240;28;20096;-81
2023/08/17 00:42:00;;;;;;;60.17;53.85;;;17.60;99.90;;;;;;5027739;28;20363;-80
2023/08/17 00:44:28;;;;;;;63.38;55.13;;;17.60;99.90;;;;;;5027362;28;20159;-80
2023/08/17 00:46:55;;;;;;;60.13;53.90;;;17.40;99.90;;;;;;5043312;28;20055;-80
2023/08/17 00:49:22;;;;;;;61.63;55.08;;;17.30;99.90;;;;;;5027055;28;20033;-81
2023/08/17 00:51:50;;;;;;;63.80;57.10;;;17.20;99.90;;;;;;5028435;28;20512;-80
2023/08/17 00:54:24;;;;;;;62.85;56.22;;;17.10;99.90;;;;;;5027436;28;20049;-80
2023/08/17 00:56:54;;;;;;;69.03;58.50;;;17.10;99.90;;;;;;5043231;28;20405;-81
2023/08/17 00:59:22;;;;;;;64.30;57.13;;;17.10;99.90;;;;;;5028507;28;20132;-80
2023/08/17 01:01:49;;;;;;;63.75;56.97;;;17.10;99.90;;;;;;5027929;28;20124;-79
2023/08/17 01:04:18;;;;;;;62.20;54.80;;;17.20;99.90;;;;;;5028159;28;20045;-80
2023/08/17 01:06:47;;;;;;;59.55;52.30;;;17.20;99.90;;;;;;5026772;28;20501;-80
2023/08/17 01:09:14;;;;;;;57.70;51.50;;;17.30;99.90;;;;;;5043685;28;20124;-81
2023/08/17 01:11:49;;;;;;;59.80;53.33;;;17.40;99.90;;;;;;5028526;28;20083;-80
2023/08/17 01:14:24;;;;;;;57.95;51.95;;;17.30;99.90;;;;;;5026395;28;20130;-80
2023/08/17 01:16:57;;;;;;;;;;;17.30;99.90;;;;;;5028920;28;20045;-80
2023/08/17 01:19:27;;;;;;;59.30;53.15;;;17.30;99.90;;;;;;5028437;28;20360;-79
2023/08/17 01:22:01;;;;;;;59.85;53.58;;;17.30;99.90;;;;;;5027148;28;20458;-79
2023/08/17 01:24:30;;;;;;;59.83;53.47;;;17.30;99.90;;;;;;5026578;28;20041;-81
2023/08/17 01:26:57;;;;;;;59.03;52.95;;;17.30;99.90;;;;;;5028557;28;20033;-81
2023/08/17 01:29:24;;;;;;;57.58;51.35;;;17.20;99.90;;;;;;5029147;28;20050;-81
2023/08/17 01:32:02;;;;;;;60.75;53.85;;;17.30;99.90;;;;;;5030812;28;20041;-79
2023/08/17 01:34:32;;;;;;;59.67;53.28;;;17.30;99.90;;;;;;5030348;28;20041;-81
2023/08/17 01:37:02;;;;;;;61.50;53.85;;;17.30;99.90;;;;;;5031633;28;20057;-81
2023/08/17 01:39:38;;;;;;;58.67;52.38;;;17.20;99.90;;;;;;5030649;28;20125;-81
2023/08/17 01:42:07;;;;;;;58.70;52.55;;;17.30;99.90;;;;;;5031912;28;20049;-81
2023/08/17 01:44:35;;;;;;;61.75;54.55;;;17.30;99.90;;;;;;5032485;28;20099;-80
2023/08/17 01:47:02;;;;;;;56.92;51.03;;;17.30;99.90;;;;;;5031871;28;20111;-80
2023/08/17 01:49:30;;;;;;;61.65;54.60;;;17.30;99.90;;;;;;5027368;28;20076;-81
2023/08/17 01:51:57;;;;;;;59.63;53.00;;;17.30;99.90;;;;;;5026836;28;20117;-80
2023/08/17 01:54:25;;;;;;;58.47;52.10;;;17.30;99.90;;;;;;5014732;28;20091;-80
2023/08/17 01:56:54;;;;;;;56.45;50.25;;;17.40;99.90;;;;;;5031178;28;20497;-80
2023/08/17 01:59:21;;;;;;;56.50;49.47;;;17.50;99.90;;;;;;5053710;28;20045;-80
2023/08/17 02:01:49;;;;;;;51.67;46.33;;;17.50;99.90;;;;;;5052627;28;20061;-80
2023/08/17 02:04:16;;;;;;;56.83;50.63;;;17.60;99.90;;;;;;5032022;28;20140;-81
2023/08/17 02:06:45;;;;;;;55.72;49.70;;;17.60;99.90;;;;;;5030154;28;20041;-80
2023/08/17 02:09:12;;;;;;;53.47;47.88;;;17.70;99.90;;;;;;5048057;28;20041;-80
2023/08/17 02:11:40;;;;;;;56.17;50.28;;;17.60;99.90;;;;;;5047613;28;20567;-80
2023/08/17 02:14:09;;;;;;;53.22;47.78;;;17.60;99.90;;;;;;5047128;28;20061;-80
2023/08/17 02:16:37;;;;;;;56.72;50.28;;;17.70;99.90;;;;;;5030192;28;20033;-80
2023/08/17 02:19:04;;;;;;;55.30;49.53;;;17.60;99.90;;;;;;5035124;28;20662;-81
2023/08/17 02:21:32;;;;;;;55.05;49.03;;;17.60;99.90;;;;;;5031030;28;20047;-80
2023/08/17 02:23:59;;;;;;;53.97;48.30;;;17.60;99.90;;;;;;5046870;28;20050;-80
2023/08/17 02:26:27;;;;;;;59.30;50.22;;;17.60;99.90;;;;;;5029622;28;20444;-79
2023/08/17 02:28:55;;;;;;;54.13;48.33;;;17.70;99.90;;;;;;5030355;28;20476;-81
2023/08/17 02:31:26;;;;;;;54.58;48.42;;;17.80;99.90;;;;;;5029685;28;20033;-81
2023/08/17 02:34:00;;;;;;;53.10;47.35;;;17.80;99.90;;;;;;5029118;28;20049;-80
2023/08/17 02:36:28;;;;;;;54.17;48.45;;;17.80;99.90;;;;;;5030807;28;20072;-80
2023/08/17 02:38:56;;;;;;;53.05;47.60;;;17.80;99.90;;;;;;5029942;28;20053;-80
2023/08/17 02:41:23;;;;;;;51.95;46.33;;;17.70;99.90;;;;;;5027922;28;20038;-80
2023/08/17 02:43:51;;;;;;;55.65;49.92;;;17.80;99.90;;;;;;5045734;28;20064;-80
2023/08/17 02:46:20;;;;;;;53.83;48.30;;;17.80;99.90;;;;;;5028979;28;20041;-80
2023/08/17 02:48:49;;;;;;;55.28;49.50;;;17.70;99.90;;;;;;5029022;28;20049;-80
2023/08/17 02:51:17;;;;;;;54.30;48.65;;;17.70;99.90;;;;;;5045684;28;20049;-80
2023/08/17 02:53:44;;;;;;;54.92;48.90;;;17.70;99.90;;;;;;5045758;28;20042;-79
2023/08/17 02:56:12;;;;;;;54.58;48.85;;;17.70;99.90;;;;;;5028328;28;20374;-80
2023/08/17 02:58:40;;;;;;;54.38;48.80;;;17.80;99.90;;;;;;5030280;28;20045;-80
2023/08/17 03:01:08;;;;;;;54.28;48.60;;;17.80;99.90;;;;;;5035947;22;20502;-77
2023/08/17 03:03:37;;;;;;;53.58;47.90;;;17.90;99.90;;;;;;5021953;28;20464;-75
2023/08/17 03:06:07;;;;;;;53.05;47.55;;;17.90;99.90;;;;;;5018981;28;20038;-77
2023/08/17 03:08:35;;;;;;;53.95;48.33;;;17.80;99.90;;;;;;5021256;28;20128;-73
2023/08/17 03:11:03;;;;;;;54.75;48.65;;;17.90;99.90;;;;;;5020154;28;20049;-75
2023/08/17 03:13:31;;;;;;;55.17;49.33;;;17.90;99.90;;;;;;5020916;28;20136;-73
2023/08/17 03:15:59;;;;;;;56.08;49.58;;;17.80;99.90;;;;;;5024980;28;20361;-74
2023/08/17 03:18:27;;;;;;;56.95;51.03;;;17.80;99.90;;;;;;5025395;28;20054;-76
2023/08/17 03:20:54;;;;;;;56.10;49.40;;;17.80;99.90;;;;;;5032382;28;20057;-76
2023/08/17 03:23:23;;;;;;;54.22;48.63;;;17.90;99.90;;;;;;5029170;28;20058;-73
2023/08/17 03:25:53;;;;;;;55.45;49.47;;;17.90;99.90;;;;;;5024378;28;20068;-75
2023/08/17 03:28:21;;;;;;;55.53;49.72;;;17.90;99.90;;;;;;5032766;28;20051;-74
2023/08/17 03:30:48;;;;;;;55.33;49.47;;;17.90;99.90;;;;;;5028453;28;20051;-74
2023/08/17 03:33:16;;;;;;;54.28;48.67;;;17.90;99.90;;;;;;5033589;28;20033;-73
2023/08/17 03:35:43;;;;;;;54.80;48.85;;;17.90;99.90;;;;;;5037664;28;20042;-78
2023/08/17 03:38:12;;;;;;;54.42;49.03;;;17.90;99.90;;;;;;5019871;28;20049;-79
2023/08/17 03:40:41;;;;;;;53.83;48.22;;;17.90;99.90;;;;;;5019086;28;20061;-74
2023/08/17 03:43:09;;;;;;;54.40;48.33;;;18.10;99.90;;;;;;5021423;28;20173;-77
2023/08/17 03:45:37;;;;;;;54.42;48.85;;;18.10;99.90;;;;;;5018558;28;20069;-76
2023/08/17 03:48:06;;;;;;;54.65;48.83;;;18.10;99.90;;;;;;5022127;28;20040;-77
2023/08/17 03:50:34;;;;;;;59.17;52.85;;;18.10;99.90;;;;;;5019655;28;20033;-76
2023/08/17 03:53:01;;;;;;;68.18;60.83;;;18.00;99.90;;;;;;5035520;28;20045;-76
2023/08/17 03:55:29;;;;;;;68.18;60.92;;;18.10;99.90;;;;;;5042245;28;20067;-76
2023/08/17 03:57:58;;;;;;;61.90;55.47;;;18.10;99.90;;;;;;5043591;28;20042;-78
2023/08/17 04:00:25;;;;;;;61.28;54.78;;;18.10;99.90;;;;;;5030755;28;20060;-76
2023/08/17 04:02:58;;;;;;;58.58;52.13;;;18.00;99.90;;;;;;5027209;28;20076;-76
2023/08/17 04:05:26;;;;;;;58.63;52.45;;;18.00;99.90;;;;;;5027252;28;20060;-78
2023/08/17 04:08:03;;;;;;;58.85;52.45;;;18.00;99.90;;;;;;5021656;28;20042;-79
2023/08/17 04:10:31;;;;;;;58.08;51.95;;;18.00;99.90;;;;;;5019790;28;20046;-79
2023/08/17 04:13:00;;;;;;;59.80;53.25;;;18.10;99.90;;;;;;5021861;28;20037;-76
2023/08/17 04:15:27;;;;;;;60.40;54.13;;;18.20;99.90;;;;;;5025048;28;20061;-77
2023/08/17 04:17:54;;;;;;;58.35;52.20;;;18.20;99.90;;;;;;5020392;28;20042;-76
2023/08/17 04:20:22;;;;;;;55.90;50.05;;;18.20;99.90;;;;;;5015640;28;20609;-79
2023/08/17 04:22:50;;;;;;;55.97;49.97;;;18.20;99.90;;;;;;5017754;28;20057;-75
2023/08/17 04:25:18;;;;;;;56.55;50.58;;;18.20;99.90;;;;;;5016849;28;20055;-76
2023/08/17 04:27:45;;;;;;;57.33;50.80;;;18.20;99.90;;;;;;5018859;28;20065;-74
2023/08/17 04:30:14;;;;;;;53.97;48.42;;;18.30;99.90;;;;;;5019310;28;20611;-74
2023/08/17 04:32:53;;;;;;;56.88;51.05;;;18.40;99.90;;;;;;5017663;28;20045;-77
2023/08/17 04:35:21;;;;;;;62.67;50.85;;;18.50;99.90;;;;;;5017744;28;20045;-77
2023/08/17 04:37:50;;;;;;;55.63;49.88;;;18.40;99.90;;;;;;5019950;28;20124;-76
2023/08/17 04:40:17;;;;;;;61.03;52.40;;;18.40;99.90;;;;;;5021540;28;20111;-75
2023/08/17 04:42:45;;;;;;;57.53;51.42;;;18.50;99.90;;;;;;5017793;28;20486;-75
2023/08/17 04:45:14;;;;;;;55.33;49.33;;;18.40;99.90;;;;;;5020445;28;20528;-74
2023/08/17 04:47:44;;;;;;;54.72;49.08;;;18.60;99.90;;;;;;5038741;28;20052;-77
2023/08/17 04:50:16;;;;;;;54.95;49.45;;;18.70;99.90;;;;;;5041750;28;20060;-76
2023/08/17 04:52:44;;;;;;;54.33;48.40;;;18.80;99.90;;;;;;5032777;28;20049;-78
2023/08/17 04:55:11;;;;;;;54.30;48.70;;;18.90;99.90;;;;;;5020611;28;20063;-76
2023/08/17 04:57:39;;;;;;;56.65;50.78;;;19.10;99.90;;;;;;5019238;28;20053;-78
2023/08/17 05:00:09;;;;;;;54.70;48.85;;;19.10;99.90;;;;;;5014549;28;20045;-77
2023/08/17 05:02:39;;;;;;;54.95;49.30;;;19.10;99.90;;;;;;5021452;28;20045;-75
2023/08/17 05:05:08;;;;;;;56.63;50.83;;;19.00;99.90;;;;;;5014332;28;20540;-77
2023/08/17 05:07:36;;;;;;;61.65;55.25;;;19.00;99.90;;;;;;5020057;28;20054;-76
2023/08/17 05:10:03;;;;;;;61.85;55.53;;;19.00;99.90;;;;;;5018963;28;20209;-76
2023/08/17 05:12:34;;;;;;;60.47;54.25;;;19.10;99.90;;;;;;5016426;28;20045;-78
2023/08/17 05:15:01;;;;;;;56.65;50.97;;;19.20;99.90;;;;;;5019320;28;20077;-76
2023/08/17 05:17:29;;;;;;;56.20;50.53;;;19.40;99.90;;;;;;5015488;28;20049;-79
2023/08/17 05:19:58;;;;;;;63.55;56.70;;;19.50;99.90;;;;;;5015861;28;20053;-78
2023/08/17 05:22:28;;;;;;;55.47;49.88;;;19.70;99.90;;;;;;5017191;28;20610;-78
2023/08/17 05:24:56;;;;;;;54.42;48.90;;;19.80;99.90;;;;;;5015037;28;20128;-78
2023/08/17 05:27:23;;;;;;;53.38;48.00;;;20.00;99.90;;;;;;5018140;28;20129;-76
2023/08/17 05:29:51;;;;;;;56.78;48.25;;;20.20;99.90;;;;;;5024738;28;20053;-76
2023/08/17 05:32:19;;;;;;;50.85;45.55;;;20.50;99.90;;;;;;5031587;28;20046;-77
2023/08/17 05:34:49;;;;;;;51.25;46.05;;;20.60;99.90;;;;;;5020643;28;20065;-77
2023/08/17 05:37:18;;;;;;;53.70;48.08;;;20.70;99.90;;;;;;5016963;28;20037;-75
2023/08/17 05:39:45;;;;;;;52.10;46.67;;;20.80;99.90;;;;;;5019926;28;20481;-74
2023/08/17 05:42:12;;;;;;;52.25;46.60;;;21.00;99.90;;;;;;5017560;28;20549;-76
2023/08/17 05:44:40;;;;;;;51.10;45.95;;;21.10;99.90;;;;;;5020032;28;20053;-75
2023/08/17 05:47:07;;;;;;;53.70;48.20;;;21.20;99.90;;;;;;5017535;28;20533;-74
2023/08/17 05:49:35;;;;;;;54.75;49.15;;;21.30;99.90;;;;;;5018225;28;20103;-77
2023/08/17 05:52:02;;;;;;;52.10;46.63;;;21.60;99.90;;;;;;5017547;28;20050;-79
2023/08/17 05:54:31;;;;;;;50.42;45.00;;;21.80;99.90;;;;;;5017501;28;20044;-76
2023/08/17 05:56:59;;;;;;;52.47;46.80;;;22.00;99.90;;;;;;5018470;28;20060;-75
2023/08/17 05:59:26;;;;;;;53.33;47.63;;;22.30;99.90;;;;;;5016372;28;20153;-76
2023/08/17 06:01:53;;;;;;;53.63;48.03;;;22.50;99.90;;;;;;5015883;28;20030;-74
2023/08/17 06:04:21;;;;;;;50.13;45.20;;;22.50;99.90;;;;;;5025218;28;20041;-76
2023/08/17 06:06:48;;;;;;;51.17;46.17;;;22.50;99.90;;;;;;5024217;28;20065;-74
2023/08/17 06:09:16;;;;;;;54.33;48.75;;;22.50;99.90;;;;;;5023642;28;20052;-74
2023/08/17 06:11:45;;;;;;;52.50;47.50;;;22.50;99.90;;;;;;5032528;28;20109;-75
2023/08/17 06:14:12;;;;;;;55.20;49.65;;;22.60;99.90;;;;;;5022039;28;20052;-74
2023/08/17 06:16:39;;;;;;;56.20;50.70;;;22.70;99.90;;;;;;5019453;28;20045;-76
2023/08/17 06:19:07;;;;;;;56.42;50.75;;;22.70;99.90;;;;;;5022701;28;20034;-78
2023/08/17 06:21:34;;;;;;;57.90;52.25;;;22.80;99.90;;;;;;5021995;28;20045;-78
2023/08/17 06:24:02;;;;;;;55.63;49.92;;;22.90;99.90;;;;;;5020970;28;20096;-74
2023/08/17 06:26:29;;;;;;;55.15;49.00;;;22.80;99.90;;;;;;5018962;28;20073;-75
2023/08/17 06:28:58;;;;;;;55.95;50.15;;;22.80;99.90;;;;;;5022831;28;20041;-77
2023/08/17 06:31:27;;;;;;;55.20;49.85;;;22.80;99.90;;;;;;5023550;28;20041;-75
2023/08/17 06:33:54;;;;;;;61.90;55.60;;;22.80;99.90;;;;;;5021370;28;20497;-74
2023/08/17 06:36:22;;;;;;;60.35;54.42;;;22.80;99.90;;;;;;5022694;28;20049;-74
2023/08/17 06:38:49;;;;;;;62.40;55.85;;;22.70;99.90;;;;;;5022232;28;20045;-75
2023/08/17 06:41:17;;;;;;;62.20;55.60;;;22.80;99.90;;;;;;5023968;28;20050;-75
2023/08/17 06:43:46;;;;;;;61.30;55.03;;;22.90;99.90;;;;;;5022627;28;20069;-76
2023/08/17 06:46:15;;;;;;;61.85;55.45;;;23.00;99.90;;;;;;5022534;28;20053;-74
2023/08/17 06:48:43;;;;;;;63.17;56.70;;;22.90;99.90;;;;;;5016630;28;20045;-73
2023/08/17 06:51:10;;;;;;;63.10;56.63;;;22.90;99.90;;;;;;5020173;28;20079;-76
2023/08/17 06:53:53;;;;;;;61.10;54.88;;;22.90;99.90;;;;;;5022218;28;20045;-80
2023/08/17 06:56:22;;;;;;;64.88;57.75;;;23.00;99.90;;;;;;5022324;28;20133;-73
2023/08/17 06:58:50;;;;;;;64.90;58.20;;;23.00;99.90;;;;;;5018545;28;20038;-77
2023/08/17 07:01:18;;;;;;;63.55;57.05;;;23.30;99.90;;;;;;5022546;28;20045;-75
2023/08/17 07:03:46;;;;;;;66.18;59.10;;;23.40;99.90;;;;;;5020522;28;20043;-76
2023/08/17 07:06:13;;;;;;;67.68;60.80;;;23.40;99.90;;;;;;5018631;28;20049;-75
2023/08/17 07:08:41;;;;;;;70.68;63.10;;;23.50;99.90;;;;;;5021178;28;20054;-74
2023/08/17 07:11:09;;;;;;;68.72;59.53;;;23.60;99.90;;;;;;5025319;28;20675;-74
2023/08/17 07:13:36;;;;;;;68.90;61.75;;;23.70;99.90;;;;;;5025109;28;20041;-76
2023/08/17 07:16:04;;;;;;;65.82;59.13;;;23.80;99.90;;;;;;5022498;28;20037;-75
2023/08/17 07:18:36;;;;;;;69.47;60.22;;;24.20;99.90;;;;;;5023731;28;20038;-76
2023/08/17 07:21:04;;;;;;;65.95;58.92;;;24.30;99.90;;;;;;5029141;28;20049;-76
2023/08/17 07:23:34;;;;;;;69.13;61.00;;;24.40;99.90;;;;;;5039748;28;20046;-78
2023/08/17 07:26:01;;;;;;;67.68;60.40;;;24.40;99.90;;;;;;5036995;28;20061;-76
2023/08/17 07:28:29;;;;;;;69.10;61.28;;;24.50;99.90;;;;;;5036354;28;20048;-75
2023/08/17 07:30:56;;;;;;;70.28;59.35;;;24.80;99.90;;;;;;5034227;28;20037;-77
2023/08/17 07:33:23;;;;;;;72.78;61.47;;;25.10;99.90;;;;;;5027201;28;20064;-75
2023/08/17 07:35:55;;;;;;;68.22;60.90;;;25.20;99.90;;;;;;5021190;28;20409;-75
2023/08/17 07:38:23;;;;;;;67.72;60.25;;;25.20;99.90;;;;;;5020808;28;20042;-75
2023/08/17 07:40:50;;;;;;;68.05;59.28;;;25.40;99.90;;;;;;5018002;28;20152;-75
2023/08/17 07:43:17;;;;;;;64.68;57.55;;;25.80;99.90;;;;;;5020078;28;20497;-75
2023/08/17 07:45:46;;;;;;;68.93;61.35;;;26.40;99.90;;;;;;5026440;28;20046;-74
2023/08/17 07:48:14;;;;;;;68.32;59.00;;;27.00;99.90;;;;;;5021088;28;20118;-75
2023/08/17 07:50:41;;;;;;;69.03;59.15;;;27.40;99.90;;;;;;5023721;28;20467;-77
2023/08/17 07:53:12;;;;;;;65.75;58.72;;;27.40;99.90;;;;;;5021687;28;20084;-73
2023/08/17 07:55:39;;;;;;;72.82;58.65;;;27.50;99.90;;;;;;5016029;28;20037;-75
2023/08/17 07:58:07;;;;;;;71.53;61.30;;;27.40;99.90;;;;;;5019925;28;20073;-76
2023/08/17 08:00:35;;;;;;;68.40;58.60;;;27.20;99.90;;;;;;5014904;28;20553;-77
2023/08/17 08:03:02;;;;;;;71.88;60.03;;;26.90;99.90;;;;;;5018626;28;20183;-76
2023/08/17 08:05:30;;;;;;;68.82;60.38;;;26.70;99.90;;;;;;5021928;28;20041;-77
2023/08/17 08:07:57;;;;;;;68.82;58.47;;;26.50;99.90;;;;;;5015585;28;20041;-75
2023/08/17 08:10:27;;;;;;;71.07;58.75;;;26.50;99.90;;;;;;5018379;28;20064;-78
2023/08/17 08:12:55;;;;;;;70.38;60.42;;;26.40;99.90;;;;;;5020006;28;20140;-75
2023/08/17 08:15:24;;;;;;;68.68;58.58;;;26.40;99.90;;;;;;5020986;28;20074;-76
2023/08/17 08:17:51;;;;;;;63.88;57.00;;;26.40;99.90;;;;;;5041356;28;20034;-76
2023/08/17 08:20:18;;;;;;;69.90;56.50;;;26.60;99.90;;;;;;5039704;28;20065;-74
2023/08/17 08:22:46;;;;;;;61.30;54.83;;;26.90;99.90;;;;;;5033147;28;20045;-75
2023/08/17 08:25:14;;;;;;;64.72;56.38;;;27.10;99.90;;;;;;5032890;28;20045;-73
2023/08/17 08:27:48;;;;;;;55.88;50.13;;;27.00;99.90;;;;;;5028970;28;20136;-76
2023/08/17 08:30:17;;;;;;;50.83;45.83;;;26.90;99.90;;;;;;5026669;28;20057;-75
2023/08/17 08:32:44;;;;;;;52.55;47.10;;;26.80;99.90;;;;;;5030101;28;20034;-76
2023/08/17 08:35:12;;;;;;;56.97;51.15;;;26.90;99.90;;;;;;5020379;28;20505;-77
2023/08/17 08:37:39;;;;;;;47.80;43.13;;;27.00;99.90;;;;;;5020822;28;20552;-75
2023/08/17 08:40:14;;;;;;;49.33;44.60;;;27.20;99.90;;;;;;5022448;28;20499;-77
2023/08/17 08:42:41;;;;;;;56.00;50.25;;;27.10;99.90;;;;;;5020019;28;20137;-76
2023/08/17 08:45:11;;;;;;;52.00;46.53;;;27.00;99.90;;;;;;5022568;28;20055;-76
2023/08/17 08:47:40;;;;;;;52.53;47.33;;;27.00;99.90;;;;;;5028381;28;20045;-75
2023/08/17 08:50:09;;;;;;;54.70;49.00;;;27.20;99.90;;;;;;5031586;28;20041;-78
2023/08/17 08:52:41;;;;;;;51.22;46.10;;;27.50;99.90;;;;;;5025665;28;20045;-78
2023/08/17 08:55:13;;;;;;;50.80;45.78;;;27.70;99.90;;;;;;5020997;28;20052;-79
2023/08/17 08:57:41;;;;;;;47.22;42.63;;;27.80;99.90;;;;;;5020501;28;20041;-78
2023/08/17 09:00:13;;;;;;;44.05;39.90;;;28.00;99.90;;;;;;5018026;28;20658;-76
2023/08/17 09:02:42;;;;;;;43.50;39.20;;;28.20;99.90;;;;;;5018746;28;20120;-78
2023/08/17 09:05:12;;;;;;;38.10;34.38;;;28.20;99.90;;;;;;5014896;28;20042;-76
2023/08/17 09:07:40;;;;;;;38.80;35.08;;;27.90;99.90;;;;;;5019776;28;20049;-76
2023/08/17 09:10:09;;;;;;;40.70;36.97;;;28.00;99.90;;;;;;5016933;28;20045;-77
2023/08/17 09:12:38;;;;;;;43.03;39.13;;;27.70;99.90;;;;;;5020243;28;20204;-77
2023/08/17 09:15:06;;;;;;;44.08;39.63;;;27.80;99.90;;;;;;5020049;28;20042;-75
2023/08/17 09:17:35;;;;;;;45.25;40.83;;;28.30;99.90;;;;;;5038775;28;20097;-78
2023/08/17 09:20:03;;;;;;;44.38;40.08;;;28.80;99.90;;;;;;5040641;28;20054;-77
2023/08/17 09:22:39;;;;;;;48.25;43.45;;;28.80;99.90;;;;;;5034561;28;20088;-76
2023/08/17 09:25:08;;;;;;;47.80;43.05;;;28.70;99.90;;;;;;5026213;28;20070;-75
2023/08/17 09:27:38;;;;;;;49.53;44.65;;;29.00;99.90;;;;;;5024119;28;20498;-76
2023/08/17 09:30:08;;;;;;;49.90;45.10;;;29.40;99.90;;;;;;5022398;28;20041;-77
2023/08/17 09:32:37;;;;;;;52.10;47.03;;;29.30;99.90;;;;;;5021431;28;20046;-76
2023/08/17 09:35:05;;;;;;;52.60;47.22;;;29.30;99.90;;;;;;5020041;28;20042;-76
2023/08/17 09:37:33;;;;;;;51.05;46.22;;;29.40;99.90;;;;;;5014652;28;20045;-79
2023/08/17 09:40:01;;;;;;;57.63;51.92;;;29.40;99.90;;;;;;5017537;28;20061;-77
2023/08/17 09:42:28;;;;;;;54.95;49.42;;;29.50;99.90;;;;;;5013356;28;20060;-76
2023/08/17 09:44:56;;;;;;;53.33;48.00;;;29.50;99.90;;;;;;5019436;28;20037;-77
2023/08/17 09:47:26;;;;;;;55.22;49.85;;;29.40;99.90;;;;;;5014851;28;20057;-78
2023/08/17 09:49:56;;;;;;;60.65;54.67;;;29.40;99.90;;;;;;5019460;28;20049;-76
2023/08/17 09:52:24;;;;;;;54.88;49.25;;;29.50;99.90;;;;;;5020464;28;20056;-75
2023/08/17 09:54:54;;;;;;;55.53;49.70;;;29.30;99.90;;;;;;5023122;28;20049;-76
2023/08/17 09:57:22;;;;;;;57.20;51.67;;;29.30;99.90;;;;;;5019351;28;20048;-78
2023/08/17 09:59:51;;;;;;;45.08;40.78;;;29.30;99.90;;;;;;5028675;28;20045;-77
2023/08/17 10:02:20;;;;;;;46.85;42.33;;;29.30;99.90;;;;;;5023405;28;20136;-75
2023/08/17 10:04:52;;;;;;;45.13;40.63;;;29.30;99.90;;;;;;5035344;28;20041;-75
2023/08/17 10:07:25;;;;;;;43.80;39.67;;;29.10;99.90;;;;;;5033271;28;20056;-77
2023/08/17 10:09:56;;;;;;;43.22;39.13;;;29.10;99.90;;;;;;5024552;28;20080;-78
2023/08/17 10:12:28;;;;;;;49.45;44.60;;;29.40;99.90;;;;;;5020892;28;20038;-76
2023/08/17 10:15:03;;;;;;;46.83;42.17;;;29.70;99.90;;;;;;5036570;28;20046;-76
2023/08/17 10:17:36;;;;;;;51.05;46.05;;;29.50;99.90;;;;;;5021600;28;20506;-76
2023/08/17 10:20:04;;;;;;;80.95;72.25;;;29.30;99.90;;;;;;5027270;28;20060;-75
2023/08/17 10:22:42;;;;;;;48.85;44.15;;;29.30;99.90;;;;;;5023210;28;20042;-76
2023/08/17 10:25:13;;;;;;;46.25;41.75;;;29.50;99.90;;;;;;5036303;28;20435;-77
2023/08/17 10:27:41;;;;;;;43.17;39.03;;;29.70;99.90;;;;;;5022106;28;20057;-79
2023/08/17 10:30:11;;;;;;;46.58;42.22;;;30.00;99.90;;;;;;5020017;28;20095;-77
2023/08/17 10:32:41;;;;;;;46.92;42.25;;;30.10;99.90;;;;;;5021448;28;20046;-75
2023/08/17 10:35:09;;;;;;;49.78;44.78;;;30.10;99.90;;;;;;5021624;28;20062;-76
2023/08/17 10:37:39;;;;;;;44.80;40.45;;;30.40;99.90;;;;;;5017797;28;20030;-74
2023/08/17 10:40:08;;;;;;;41.50;37.40;;;30.20;99.90;;;;;;5022751;28;20050;-77
2023/08/17 10:42:37;;;;;;;41.47;37.28;;;30.00;99.90;;;;;;5021273;28;20119;-77
2023/08/17 10:45:27;;;;;;;43.25;39.03;;;29.70;99.90;;;;;;5019726;28;20141;-76
2023/08/17 10:48:25;;;;;;;44.67;40.53;;;29.60;99.90;;;;;;5022252;28;20038;-75
2023/08/17 10:51:04;;;;;;;42.47;38.28;;;29.50;99.90;;;;;;5021475;28;20058;-75
2023/08/17 10:53:43;;;;;;;40.55;36.78;;;29.40;99.90;;;;;;5022864;28;20095;-76
2023/08/17 10:56:17;;;;;;;40.90;36.92;;;29.10;99.90;;;;;;5019586;28;20402;-75
2023/08/17 10:58:48;;;;;;;39.03;35.47;;;29.00;99.90;;;;;;5020413;28;20045;-78
2023/08/17 11:01:33;;;;;;;43.22;38.80;;;29.00;99.90;;;;;;5018555;28;20102;-76
2023/08/17 11:04:16;;;;;;;43.65;39.45;;;29.10;99.90;;;;;;5023959;28;20041;-76
2023/08/17 11:06:45;;;;;;;43.35;39.35;;;29.30;99.90;;;;;;5020814;28;20128;-77
2023/08/17 11:09:18;;;;;;;38.92;35.33;;;29.40;99.90;;;;;;5018590;28;20104;-76
2023/08/17 11:11:54;;;;;;;57.00;51.55;;;29.50;99.90;;;;;;5023096;28;20071;-74
2023/08/17 11:14:22;;;;;;;39.95;36.13;;;29.60;99.90;;;;;;5022492;28;20046;-77
2023/08/17 11:16:49;;;;;;;43.55;39.67;;;29.70;99.90;;;;;;5021430;28;20046;-77
2023/08/17 11:19:19;;;;;;;42.10;38.17;;;29.80;99.90;;;;;;5030186;28;20034;-76
2023/08/17 11:21:47;;;;;;;38.50;34.83;;;29.70;99.90;;;;;;5029192;28;20046;-76
2023/08/17 11:24:16;;;;;;;39.30;35.65;;;29.30;99.90;;;;;;5028708;28;20065;-76
2023/08/17 11:26:44;;;;;;;40.92;37.28;;;29.60;99.90;;;;;;5032359;28;20049;-75
2023/08/17 11:29:11;;;;;;;43.55;39.47;;;29.40;99.90;;;;;;5023030;28;20041;-75
2023/08/17 11:31:42;;;;;;;45.75;41.38;;;29.60;99.90;;;;;;5020866;28;20103;-77
2023/08/17 11:34:09;;;;;;;42.33;38.42;;;29.80;99.90;;;;;;5020598;28;20056;-75
2023/08/17 11:36:38;;;;;;;41.83;37.97;;;29.80;99.90;;;;;;5019124;28;20045;-76
2023/08/17 11:39:06;;;;;;;42.22;38.28;;;29.90;99.90;;;;;;5022812;28;20116;-77
2023/08/17 11:41:36;;;;;;;45.00;40.80;;;29.80;99.90;;;;;;5019689;28;20065;-75
2023/08/17 11:44:05;;;;;;;41.70;38.00;;;29.50;99.90;;;;;;5021852;28;20115;-77
2023/08/17 11:46:33;;;;;;;41.45;37.45;;;29.20;99.90;;;;;;5020686;28;20137;-77
2023/08/17 11:49:01;;;;;;;39.22;35.67;;;29.40;99.90;;;;;;5043768;28;20082;-78
2023/08/17 11:51:33;;;;;;;39.88;36.20;;;29.20;99.90;;;;;;5044009;28;20041;-77
2023/08/17 11:54:03;;;;;;;45.97;41.80;;;29.40;99.90;;;;;;5034634;28;20050;-76
2023/08/17 11:56:30;;;;;;;48.10;43.42;;;29.80;99.90;;;;;;5031355;28;20050;-78
2023/08/17 11:59:18;;;;;;;45.25;41.00;;;30.00;99.90;;;;;;5033209;28;20049;-78
2023/08/17 12:01:46;;;;;;;43.38;39.38;;;30.20;99.90;;;;;;5024728;28;20050;-76
2023/08/17 12:04:13;;;;;;;45.70;41.38;;;30.40;99.90;;;;;;5017886;28;20403;-76
2023/08/17 12:06:45;;;;;;;41.33;37.35;;;30.40;99.90;;;;;;5015429;28;20124;-78
2023/08/17 12:09:14;;;;;;;40.30;36.40;;;30.20;99.90;;;;;;5020924;28;20065;-77
2023/08/17 12:11:41;;;;;;;45.22;40.90;;;29.80;99.90;;;;;;5021719;28;20488;-78
2023/08/17 12:14:17;;;;;;;44.33;40.30;;;29.60;99.90;;;;;;5023060;28;20037;-78
2023/08/17 12:16:48;;;;;;;;;;;30.00;99.90;;;;;;5024509;28;20034;-78
2023/08/17 12:19:18;;;;;;;42.40;38.30;;;30.10;99.90;;;;;;5021015;28;19925;-76
2023/08/17 12:21:47;;;;;;;43.03;38.97;;;30.10;99.90;;;;;;5020312;28;20045;-76
2023/08/17 12:24:16;;;;;;;42.67;38.47;;;30.10;99.90;;;;;;5022899;28;20148;-77
2023/08/17 12:26:57;;;;;;;40.33;36.67;;;30.00;99.90;;;;;;5023754;28;20033;-76
2023/08/17 12:29:26;;;;;;;42.78;38.58;;;29.90;99.90;;;;;;5020451;28;20069;-78
2023/08/17 12:31:54;;;;;;;44.00;39.60;;;29.80;99.90;;;;;;5020281;28;20050;-77
2023/08/17 12:34:21;;;;;;;44.80;40.70;;;29.80;99.90;;;;;;5020449;28;20042;-77
2023/08/17 12:36:51;;;;;;;46.67;42.17;;;29.90;99.90;;;;;;5019162;28;20038;-76